sensor_id;sensor_type;location;lat;lon;timestamp;pressure;altitude;pressure_sealevel;temperature;humidity
44140;BME280;29803;51.048;4.686;2022-09-09T00:04:40;100776.06;;;12.15;100.00
44140;BME280;29803;51.048;4.686;2022-09-09T00:07:35;100779.22;;;12.18;100.00
44140;BME280;29803;51.048;4.686;2022-09-09T00:15:52;100775.78;;;12.10;100.00
44140;BME280;29803;51.048;4.686;2022-09-09T00:18:45;100771.69;;;12.14;100.00
44140;BME280;29803;51.048;4.686;2022-09-09T00:21:25;100764.44;;;12.14;100.00
44140;BME280;29803;51.048;4.686;2022-09-09T00:23:57;100767.63;;;12.18;100.00
44140;BME280;29803;51.048;4.686;2022-09-09T00:26:45;100769.13;;;12.21;100.00
44140;BME280;29803;51.048;4.686;2022-09-09T00:29:40;100770.81;;;12.22;100.00
44140;BME280;29803;51.048;4.686;2022-09-09T00:32:16;100774.81;;;12.26;100.00
44140;BME280;29803;51.048;4.686;2022-09-09T00:34:52;100768.59;;;12.25;100.00
44140;BME280;29803;51.048;4.686;2022-09-09T00:37:25;100763.88;;;12.27;100.00
44140;BME280;29803;51.048;4.686;2022-09-09T00:39:59;100767.03;;;12.31;100.00
44140;BME280;29803;51.048;4.686;2022-09-09T00:42:40;100758.59;;;12.34;100.00
44140;BME280;29803;51.048;4.686;2022-09-09T00:47:51;100750.91;;;12.31;100.00
44140;BME280;29803;51.048;4.686;2022-09-09T00:53:39;100746.91;;;12.27;100.00
44140;BME280;29803;51.048;4.686;2022-09-09T00:56:14;100737.16;;;12.26;100.00
44140;BME280;29803;51.048;4.686;2022-09-09T00:59:00;100741.03;;;12.23;100.00
44140;BME280;29803;51.048;4.686;2022-09-09T01:01:37;100744.41;;;12.25;100.00
44140;BME280;29803;51.048;4.686;2022-09-09T01:04:13;100748.91;;;12.25;100.00
44140;BME280;29803;51.048;4.686;2022-09-09T01:06:54;100744.75;;;12.22;100.00
44140;BME280;29803;51.048;4.686;2022-09-09T01:09:33;100735.84;;;12.22;100.00
44140;BME280;29803;51.048;4.686;2022-09-09T01:12:35;100732.97;;;12.23;100.00
44140;BME280;29803;51.048;4.686;2022-09-09T01:15:13;100729.00;;;12.34;100.00
44140;BME280;29803;51.048;4.686;2022-09-09T01:17:52;100731.84;;;12.40;100.00
44140;BME280;29803;51.048;4.686;2022-09-09T01:20:30;100731.44;;;12.43;100.00
44140;BME280;29803;51.048;4.686;2022-09-09T01:26:21;100719.91;;;12.58;100.00
44140;BME280;29803;51.048;4.686;2022-09-09T01:28:54;100721.22;;;12.62;100.00
44140;BME280;29803;51.048;4.686;2022-09-09T01:31:29;100719.44;;;12.69;100.00
44140;BME280;29803;51.048;4.686;2022-09-09T01:34:01;100717.44;;;12.71;100.00
44140;BME280;29803;51.048;4.686;2022-09-09T01:36:40;100708.69;;;12.69;100.00
44140;BME280;29803;51.048;4.686;2022-09-09T01:39:13;100710.00;;;12.73;100.00
44140;BME280;29803;51.048;4.686;2022-09-09T01:41:44;100706.75;;;12.78;100.00
44140;BME280;29803;51.048;4.686;2022-09-09T01:44:15;100698.88;;;12.76;100.00
44140;BME280;29803;51.048;4.686;2022-09-09T01:46:45;100693.09;;;12.79;100.00
44140;BME280;29803;51.048;4.686;2022-09-09T01:49:16;100696.25;;;12.83;100.00
44140;BME280;29803;51.048;4.686;2022-09-09T01:51:51;100699.59;;;12.85;100.00
44140;BME280;29803;51.048;4.686;2022-09-09T01:54:26;100698.88;;;12.91;100.00
44140;BME280;29803;51.048;4.686;2022-09-09T01:57:20;100687.38;;;12.97;100.00
44140;BME280;29803;51.048;4.686;2022-09-09T02:00:02;100697.31;;;12.96;100.00
44140;BME280;29803;51.048;4.686;2022-09-09T02:02:48;100693.50;;;12.91;100.00
44140;BME280;29803;51.048;4.686;2022-09-09T02:08:17;100692.19;;;12.87;100.00
44140;BME280;29803;51.048;4.686;2022-09-09T02:11:11;100689.50;;;12.87;100.00
44140;BME280;29803;51.048;4.686;2022-09-09T02:13:45;100677.34;;;12.91;100.00
44140;BME280;29803;51.048;4.686;2022-09-09T02:16:25;100690.81;;;12.91;100.00
44140;BME280;29803;51.048;4.686;2022-09-09T02:19:15;100681.78;;;12.99;100.00
44140;BME280;29803;51.048;4.686;2022-09-09T02:21:49;100682.63;;;12.99;100.00
44140;BME280;29803;51.048;4.686;2022-09-09T02:24:22;100683.28;;;13.01;100.00
44140;BME280;29803;51.048;4.686;2022-09-09T02:26:55;100687.63;;;13.02;100.00
44140;BME280;29803;51.048;4.686;2022-09-09T02:29:31;100685.78;;;13.03;100.00
44140;BME280;29803;51.048;4.686;2022-09-09T02:32:10;100681.91;;;13.05;100.00
44140;BME280;29803;51.048;4.686;2022-09-09T02:37:32;100680.47;;;13.09;100.00
44140;BME280;29803;51.048;4.686;2022-09-09T02:40:07;100683.00;;;13.11;100.00
44140;BME280;29803;51.048;4.686;2022-09-09T02:42:40;100679.00;;;13.07;100.00
44140;BME280;29803;51.048;4.686;2022-09-09T02:45:14;100680.66;;;13.08;100.00
44140;BME280;29803;51.048;4.686;2022-09-09T02:50:54;100688.94;;;13.06;100.00
44140;BME280;29803;51.048;4.686;2022-09-09T02:56:25;100697.59;;;13.02;100.00
44140;BME280;29803;51.048;4.686;2022-09-09T02:58:58;100688.28;;;13.04;100.00
44140;BME280;29803;51.048;4.686;2022-09-09T03:01:29;100683.56;;;13.06;100.00
44140;BME280;29803;51.048;4.686;2022-09-09T03:03:59;100689.78;;;13.07;100.00
44140;BME280;29803;51.048;4.686;2022-09-09T03:06:30;100688.13;;;13.06;100.00
44140;BME280;29803;51.048;4.686;2022-09-09T03:09:01;100682.53;;;13.07;100.00
44140;BME280;29803;51.048;4.686;2022-09-09T03:11:32;100687.91;;;13.07;100.00
44140;BME280;29803;51.048;4.686;2022-09-09T03:14:03;100680.47;;;13.09;100.00
44140;BME280;29803;51.048;4.686;2022-09-09T03:16:34;100683.28;;;13.16;100.00
44140;BME280;29803;51.048;4.686;2022-09-09T03:19:04;100682.56;;;13.22;100.00
44140;BME280;29803;51.048;4.686;2022-09-09T03:21:34;100677.16;;;13.22;100.00
44140;BME280;29803;51.048;4.686;2022-09-09T03:24:06;100677.81;;;13.24;100.00
44140;BME280;29803;51.048;4.686;2022-09-09T03:26:36;100680.84;;;13.21;100.00
44140;BME280;29803;51.048;4.686;2022-09-09T03:29:07;100690.63;;;13.22;100.00
44140;BME280;29803;51.048;4.686;2022-09-09T03:31:39;100676.66;;;13.18;100.00
44140;BME280;29803;51.048;4.686;2022-09-09T03:34:09;100675.00;;;13.17;100.00
44140;BME280;29803;51.048;4.686;2022-09-09T03:36:40;100669.25;;;13.20;100.00
44140;BME280;29803;51.048;4.686;2022-09-09T03:39:11;100664.03;;;13.19;100.00
44140;BME280;29803;51.048;4.686;2022-09-09T03:41:41;100665.56;;;13.21;100.00
44140;BME280;29803;51.048;4.686;2022-09-09T03:44:12;100667.84;;;13.25;100.00
44140;BME280;29803;51.048;4.686;2022-09-09T03:46:42;100671.59;;;13.24;100.00
44140;BME280;29803;51.048;4.686;2022-09-09T03:49:13;100672.94;;;13.19;100.00
44140;BME280;29803;51.048;4.686;2022-09-09T03:51:43;100672.78;;;13.21;100.00
44140;BME280;29803;51.048;4.686;2022-09-09T03:54:14;100673.91;;;13.27;100.00
44140;BME280;29803;51.048;4.686;2022-09-09T03:56:44;100671.84;;;13.29;100.00
44140;BME280;29803;51.048;4.686;2022-09-09T03:59:15;100669.63;;;13.32;100.00
44140;BME280;29803;51.048;4.686;2022-09-09T04:01:46;100672.31;;;13.32;100.00
44140;BME280;29803;51.048;4.686;2022-09-09T04:04:17;100668.03;;;13.38;100.00
44140;BME280;29803;51.048;4.686;2022-09-09T04:06:47;100659.59;;;13.41;100.00
44140;BME280;29803;51.048;4.686;2022-09-09T04:09:18;100657.53;;;13.43;100.00
44140;BME280;29803;51.048;4.686;2022-09-09T04:11:48;100660.84;;;13.45;100.00
44140;BME280;29803;51.048;4.686;2022-09-09T04:14:19;100655.28;;;13.46;100.00
44140;BME280;29803;51.048;4.686;2022-09-09T04:16:50;100654.00;;;13.42;100.00
44140;BME280;29803;51.048;4.686;2022-09-09T04:19:20;100650.47;;;13.42;100.00
44140;BME280;29803;51.048;4.686;2022-09-09T04:21:51;100638.97;;;13.33;100.00
44140;BME280;29803;51.048;4.686;2022-09-09T04:24:22;100649.75;;;13.33;100.00
44140;BME280;29803;51.048;4.686;2022-09-09T04:26:52;100650.56;;;13.34;100.00
44140;BME280;29803;51.048;4.686;2022-09-09T04:29:23;100641.66;;;13.33;100.00
44140;BME280;29803;51.048;4.686;2022-09-09T04:31:53;100640.81;;;13.33;100.00
44140;BME280;29803;51.048;4.686;2022-09-09T04:34:24;100634.41;;;13.34;100.00
44140;BME280;29803;51.048;4.686;2022-09-09T04:36:55;100634.66;;;13.39;100.00
44140;BME280;29803;51.048;4.686;2022-09-09T04:39:27;100629.94;;;13.41;100.00
44140;BME280;29803;51.048;4.686;2022-09-09T04:41:57;100628.72;;;13.43;100.00
44140;BME280;29803;51.048;4.686;2022-09-09T04:44:27;100632.69;;;13.47;100.00
44140;BME280;29803;51.048;4.686;2022-09-09T04:46:58;100637.06;;;13.48;100.00
44140;BME280;29803;51.048;4.686;2022-09-09T04:49:28;100628.41;;;13.53;100.00
44140;BME280;29803;51.048;4.686;2022-09-09T04:52:02;100631.56;;;13.57;100.00
44140;BME280;29803;51.048;4.686;2022-09-09T04:54:33;100630.72;;;13.56;100.00
44140;BME280;29803;51.048;4.686;2022-09-09T04:57:04;100640.69;;;13.56;100.00
44140;BME280;29803;51.048;4.686;2022-09-09T04:59:35;100647.06;;;13.55;100.00
44140;BME280;29803;51.048;4.686;2022-09-09T05:02:05;100643.19;;;13.57;100.00
44140;BME280;29803;51.048;4.686;2022-09-09T05:04:36;100638.00;;;13.56;100.00
44140;BME280;29803;51.048;4.686;2022-09-09T05:07:07;100645.88;;;13.57;100.00
44140;BME280;29803;51.048;4.686;2022-09-09T05:09:37;100646.25;;;13.54;100.00
44140;BME280;29803;51.048;4.686;2022-09-09T05:12:07;100643.53;;;13.54;100.00
44140;BME280;29803;51.048;4.686;2022-09-09T05:14:38;100648.75;;;13.56;100.00
44140;BME280;29803;51.048;4.686;2022-09-09T05:17:09;100639.81;;;13.55;100.00
44140;BME280;29803;51.048;4.686;2022-09-09T05:19:39;100648.75;;;13.56;100.00
44140;BME280;29803;51.048;4.686;2022-09-09T05:22:10;100646.06;;;13.56;100.00
44140;BME280;29803;51.048;4.686;2022-09-09T05:24:42;100652.72;;;13.60;100.00
44140;BME280;29803;51.048;4.686;2022-09-09T05:27:13;100649.66;;;13.63;100.00
44140;BME280;29803;51.048;4.686;2022-09-09T05:29:43;100650.38;;;13.71;100.00
44140;BME280;29803;51.048;4.686;2022-09-09T05:32:14;100642.94;;;13.73;100.00
44140;BME280;29803;51.048;4.686;2022-09-09T05:34:46;100646.84;;;13.71;100.00
44140;BME280;29803;51.048;4.686;2022-09-09T05:37:17;100648.31;;;13.73;100.00
44140;BME280;29803;51.048;4.686;2022-09-09T05:39:47;100648.56;;;13.79;100.00
44140;BME280;29803;51.048;4.686;2022-09-09T05:42:17;100651.53;;;13.84;100.00
44140;BME280;29803;51.048;4.686;2022-09-09T05:44:48;100654.28;;;13.90;100.00
44140;BME280;29803;51.048;4.686;2022-09-09T05:47:18;100652.97;;;14.01;100.00
44140;BME280;29803;51.048;4.686;2022-09-09T05:49:49;100649.53;;;14.14;100.00
44140;BME280;29803;51.048;4.686;2022-09-09T05:52:19;100635.97;;;14.29;100.00
44140;BME280;29803;51.048;4.686;2022-09-09T05:54:50;100630.09;;;14.46;100.00
44140;BME280;29803;51.048;4.686;2022-09-09T05:57:21;100634.13;;;14.57;100.00
44140;BME280;29803;51.048;4.686;2022-09-09T05:59:51;100627.59;;;14.80;100.00
44140;BME280;29803;51.048;4.686;2022-09-09T06:02:22;100625.44;;;14.96;100.00
44140;BME280;29803;51.048;4.686;2022-09-09T06:04:52;100620.81;;;15.38;100.00
44140;BME280;29803;51.048;4.686;2022-09-09T06:07:23;100631.97;;;15.76;100.00
44140;BME280;29803;51.048;4.686;2022-09-09T06:09:53;100639.28;;;16.09;100.00
44140;BME280;29803;51.048;4.686;2022-09-09T06:12:25;100640.53;;;16.13;100.00
44140;BME280;29803;51.048;4.686;2022-09-09T06:14:55;100638.03;;;15.98;100.00
44140;BME280;29803;51.048;4.686;2022-09-09T06:17:26;100640.31;;;15.82;100.00
44140;BME280;29803;51.048;4.686;2022-09-09T06:19:57;100634.56;;;15.50;100.00
44140;BME280;29803;51.048;4.686;2022-09-09T06:22:27;100644.53;;;15.43;100.00
44140;BME280;29803;51.048;4.686;2022-09-09T06:24:58;100636.00;;;15.39;100.00
44140;BME280;29803;51.048;4.686;2022-09-09T06:27:28;100641.16;;;15.34;100.00
44140;BME280;29803;51.048;4.686;2022-09-09T06:29:59;100641.81;;;15.36;100.00
44140;BME280;29803;51.048;4.686;2022-09-09T06:32:29;100637.25;;;15.37;100.00
44140;BME280;29803;51.048;4.686;2022-09-09T06:35:00;100632.47;;;15.39;100.00
44140;BME280;29803;51.048;4.686;2022-09-09T06:37:31;100626.66;;;15.42;100.00
44140;BME280;29803;51.048;4.686;2022-09-09T06:40:02;100629.81;;;15.52;100.00
44140;BME280;29803;51.048;4.686;2022-09-09T06:42:32;100631.13;;;15.76;100.00
44140;BME280;29803;51.048;4.686;2022-09-09T06:45:03;100626.13;;;15.79;100.00
44140;BME280;29803;51.048;4.686;2022-09-09T06:47:33;100625.94;;;15.94;100.00
44140;BME280;29803;51.048;4.686;2022-09-09T06:50:04;100624.72;;;16.23;100.00
44140;BME280;29803;51.048;4.686;2022-09-09T06:52:36;100635.50;;;16.56;100.00
44140;BME280;29803;51.048;4.686;2022-09-09T06:55:07;100626.34;;;16.64;100.00
44140;BME280;29803;51.048;4.686;2022-09-09T06:57:38;100636.97;;;16.46;100.00
44140;BME280;29803;51.048;4.686;2022-09-09T07:00:09;100639.28;;;16.42;100.00
44140;BME280;29803;51.048;4.686;2022-09-09T07:02:40;100625.13;;;16.27;100.00
44140;BME280;29803;51.048;4.686;2022-09-09T07:05:11;100637.00;;;16.13;100.00
44140;BME280;29803;51.048;4.686;2022-09-09T07:07:41;100624.28;;;16.00;100.00
44140;BME280;29803;51.048;4.686;2022-09-09T07:10:12;100628.44;;;15.96;100.00
44140;BME280;29803;51.048;4.686;2022-09-09T07:12:42;100635.72;;;15.89;100.00
44140;BME280;29803;51.048;4.686;2022-09-09T07:15:13;100624.91;;;15.82;100.00
44140;BME280;29803;51.048;4.686;2022-09-09T07:17:44;100622.19;;;15.89;100.00
44140;BME280;29803;51.048;4.686;2022-09-09T07:20:15;100629.06;;;15.91;100.00
44140;BME280;29803;51.048;4.686;2022-09-09T07:22:45;100623.44;;;15.99;100.00
44140;BME280;29803;51.048;4.686;2022-09-09T07:25:16;100625.34;;;15.92;100.00
44140;BME280;29803;51.048;4.686;2022-09-09T07:27:48;100622.19;;;15.95;100.00
44140;BME280;29803;51.048;4.686;2022-09-09T07:30:19;100624.06;;;15.95;100.00
44140;BME280;29803;51.048;4.686;2022-09-09T07:32:51;100625.13;;;15.94;100.00
44140;BME280;29803;51.048;4.686;2022-09-09T07:35:22;100619.31;;;15.97;100.00
44140;BME280;29803;51.048;4.686;2022-09-09T07:37:52;100612.00;;;16.04;100.00
44140;BME280;29803;51.048;4.686;2022-09-09T07:40:23;100622.63;;;16.05;100.00
44140;BME280;29803;51.048;4.686;2022-09-09T07:42:53;100620.94;;;16.11;100.00
44140;BME280;29803;51.048;4.686;2022-09-09T07:45:23;100619.72;;;16.07;100.00
44140;BME280;29803;51.048;4.686;2022-09-09T07:47:54;100625.75;;;16.16;100.00
44140;BME280;29803;51.048;4.686;2022-09-09T07:50:27;100624.50;;;16.18;100.00
44140;BME280;29803;51.048;4.686;2022-09-09T07:52:57;100624.72;;;16.23;100.00
44140;BME280;29803;51.048;4.686;2022-09-09T07:55:28;100619.31;;;16.23;100.00
44140;BME280;29803;51.048;4.686;2022-09-09T07:57:59;100622.44;;;16.27;100.00
44140;BME280;29803;51.048;4.686;2022-09-09T08:00:29;100621.56;;;16.26;100.00
44140;BME280;29803;51.048;4.686;2022-09-09T08:03:00;100620.75;;;16.39;100.00
44140;BME280;29803;51.048;4.686;2022-09-09T08:05:32;100619.31;;;16.37;100.00
44140;BME280;29803;51.048;4.686;2022-09-09T08:08:02;100632.19;;;16.35;100.00
44140;BME280;29803;51.048;4.686;2022-09-09T08:10:34;100622.63;;;16.32;100.00
44140;BME280;29803;51.048;4.686;2022-09-09T08:13:04;100622.00;;;16.37;100.00
44140;BME280;29803;51.048;4.686;2022-09-09T08:15:35;100624.91;;;16.35;100.00
44140;BME280;29803;51.048;4.686;2022-09-09T08:18:05;100630.50;;;16.60;100.00
44140;BME280;29803;51.048;4.686;2022-09-09T08:20:36;100617.13;;;16.92;100.00
44140;BME280;29803;51.048;4.686;2022-09-09T08:23:07;100627.78;;;17.38;100.00
44140;BME280;29803;51.048;4.686;2022-09-09T08:25:38;100625.31;;;17.68;100.00
44140;BME280;29803;51.048;4.686;2022-09-09T08:28:08;100630.59;;;17.95;100.00
44140;BME280;29803;51.048;4.686;2022-09-09T08:30:40;100624.50;;;17.99;100.00
44140;BME280;29803;51.048;4.686;2022-09-09T08:33:10;100631.00;;;18.23;100.00
44140;BME280;29803;51.048;4.686;2022-09-09T08:35:49;100635.44;;;18.43;100.00
44140;BME280;29803;51.048;4.686;2022-09-09T08:38:20;100623.53;;;18.19;100.00
44140;BME280;29803;51.048;4.686;2022-09-09T08:40:53;100636.75;;;18.08;100.00
44140;BME280;29803;51.048;4.686;2022-09-09T08:43:31;100640.69;;;17.88;100.00
44140;BME280;29803;51.048;4.686;2022-09-09T08:46:12;100642.41;;;17.75;100.00
44140;BME280;29803;51.048;4.686;2022-09-09T08:51:53;100646.34;;;17.34;100.00
44140;BME280;29803;51.048;4.686;2022-09-09T08:54:30;100646.22;;;17.16;100.00
44140;BME280;29803;51.048;4.686;2022-09-09T08:57:11;100643.09;;;17.19;100.00
44140;BME280;29803;51.048;4.686;2022-09-09T08:59:43;100638.72;;;17.12;100.00
44140;BME280;29803;51.048;4.686;2022-09-09T09:02:18;100649.84;;;16.97;100.00
44140;BME280;29803;51.048;4.686;2022-09-09T09:13:13;100664.63;;;16.94;100.00
44140;BME280;29803;51.048;4.686;2022-09-09T09:15:48;100669.03;;;16.89;100.00
44140;BME280;29803;51.048;4.686;2022-09-09T09:18:20;100669.06;;;16.75;100.00
44140;BME280;29803;51.048;4.686;2022-09-09T09:23:58;100678.22;;;16.54;100.00
44140;BME280;29803;51.048;4.686;2022-09-09T09:26:33;100677.19;;;16.42;100.00
44140;BME280;29803;51.048;4.686;2022-09-09T09:29:23;100689.91;;;16.42;100.00
44140;BME280;29803;51.048;4.686;2022-09-09T09:31:58;100687.16;;;16.35;100.00
44140;BME280;29803;51.048;4.686;2022-09-09T09:34:32;100683.41;;;16.36;100.00
44140;BME280;29803;51.048;4.686;2022-09-09T09:37:12;100682.19;;;16.39;100.00
44140;BME280;29803;51.048;4.686;2022-09-09T09:39:48;100680.53;;;16.38;100.00
44140;BME280;29803;51.048;4.686;2022-09-09T09:42:19;100672.19;;;16.39;100.00
44140;BME280;29803;51.048;4.686;2022-09-09T09:44:50;100681.97;;;16.40;100.00
44140;BME280;29803;51.048;4.686;2022-09-09T09:47:22;100678.88;;;16.37;100.00
44140;BME280;29803;51.048;4.686;2022-09-09T09:49:56;100671.16;;;16.47;100.00
44140;BME280;29803;51.048;4.686;2022-09-09T09:52:30;100682.19;;;16.52;100.00
44140;BME280;29803;51.048;4.686;2022-09-09T09:55:03;100676.56;;;16.53;100.00
44140;BME280;29803;51.048;4.686;2022-09-09T09:57:34;100678.63;;;16.51;100.00
44140;BME280;29803;51.048;4.686;2022-09-09T10:00:16;100680.72;;;16.63;100.00
44140;BME280;29803;51.048;4.686;2022-09-09T10:02:49;100681.53;;;16.56;100.00
44140;BME280;29803;51.048;4.686;2022-09-09T10:05:24;100682.16;;;16.65;100.00
44140;BME280;29803;51.048;4.686;2022-09-09T10:08:15;100676.53;;;16.60;100.00
44140;BME280;29803;51.048;4.686;2022-09-09T10:11:12;100676.31;;;16.62;100.00
44140;BME280;29803;51.048;4.686;2022-09-09T10:13:53;100682.59;;;16.75;100.00
44140;BME280;29803;51.048;4.686;2022-09-09T10:19:36;100688.19;;;17.00;100.00
44140;BME280;29803;51.048;4.686;2022-09-09T10:22:26;100692.75;;;17.06;100.00
44140;BME280;29803;51.048;4.686;2022-09-09T10:25:14;100686.50;;;17.06;100.00
44140;BME280;29803;51.048;4.686;2022-09-09T10:27:58;100685.19;;;17.22;100.00
44140;BME280;29803;51.048;4.686;2022-09-09T10:33:44;100681.22;;;17.24;100.00
44140;BME280;29803;51.048;4.686;2022-09-09T10:36:39;100693.78;;;17.12;100.00
44140;BME280;29803;51.048;4.686;2022-09-09T10:39:18;100692.53;;;17.08;100.00
44140;BME280;29803;51.048;4.686;2022-09-09T10:42:00;100704.00;;;17.10;100.00
44140;BME280;29803;51.048;4.686;2022-09-09T10:50:40;100694.63;;;17.06;100.00
44140;BME280;29803;51.048;4.686;2022-09-09T10:53:24;100705.78;;;17.43;100.00
44140;BME280;29803;51.048;4.686;2022-09-09T10:56:06;100698.41;;;17.56;100.00
44140;BME280;29803;51.048;4.686;2022-09-09T10:58:52;100702.13;;;17.69;100.00
44140;BME280;29803;51.048;4.686;2022-09-09T11:01:32;100687.88;;;17.80;100.00
44140;BME280;29803;51.048;4.686;2022-09-09T11:06:48;100681.78;;;18.23;100.00
44140;BME280;29803;51.048;4.686;2022-09-09T11:09:24;100694.47;;;18.29;100.00
44140;BME280;29803;51.048;4.686;2022-09-09T11:11:57;100685.41;;;18.35;100.00
44140;BME280;29803;51.048;4.686;2022-09-09T11:17:50;100679.91;;;18.67;100.00
44140;BME280;29803;51.048;4.686;2022-09-09T11:20:22;100686.53;;;18.77;100.00
44140;BME280;29803;51.048;4.686;2022-09-09T11:23:01;100692.06;;;18.39;100.00
44140;BME280;29803;51.048;4.686;2022-09-09T11:25:40;100690.59;;;18.43;100.00
44140;BME280;29803;51.048;4.686;2022-09-09T11:34:13;100690.69;;;18.30;100.00
44140;BME280;29803;51.048;4.686;2022-09-09T11:43:16;100696.50;;;18.33;100.00
44140;BME280;29803;51.048;4.686;2022-09-09T11:45:52;100701.81;;;18.47;100.00
44140;BME280;29803;51.048;4.686;2022-09-09T11:48:57;100700.00;;;18.41;100.00
44140;BME280;29803;51.048;4.686;2022-09-09T11:51:33;100693.16;;;18.31;100.00
44140;BME280;29803;51.048;4.686;2022-09-09T11:57:31;100688.28;;;18.65;100.00
44140;BME280;29803;51.048;4.686;2022-09-09T12:00:03;100685.91;;;19.19;100.00
44140;BME280;29803;51.048;4.686;2022-09-09T12:02:34;100680.81;;;19.40;100.00
44140;BME280;29803;51.048;4.686;2022-09-09T12:05:10;100685.34;;;19.47;100.00
44140;BME280;29803;51.048;4.686;2022-09-09T12:07:51;100679.47;;;19.68;100.00
44140;BME280;29803;51.048;4.686;2022-09-09T12:10:52;100674.44;;;19.83;100.00
44140;BME280;29803;51.048;4.686;2022-09-09T12:13:25;100693.97;;;19.62;100.00
44140;BME280;29803;51.048;4.686;2022-09-09T12:15:57;100677.56;;;19.32;100.00
44140;BME280;29803;51.048;4.686;2022-09-09T12:18:47;100679.91;;;19.47;100.00
44140;BME280;29803;51.048;4.686;2022-09-09T12:21:39;100701.34;;;19.55;100.00
44140;BME280;29803;51.048;4.686;2022-09-09T12:24:24;100680.66;;;19.35;100.00
44140;BME280;29803;51.048;4.686;2022-09-09T12:30:09;100701.81;;;19.52;100.00
44140;BME280;29803;51.048;4.686;2022-09-09T12:32:41;100682.50;;;19.60;100.00
44140;BME280;29803;51.048;4.686;2022-09-09T12:35:20;100686.63;;;19.62;100.00
44140;BME280;29803;51.048;4.686;2022-09-09T12:37:55;100685.63;;;19.57;100.00
44140;BME280;29803;51.048;4.686;2022-09-09T12:40:53;100693.88;;;19.69;100.00
44140;BME280;29803;51.048;4.686;2022-09-09T12:43:25;100686.41;;;19.94;100.00
44140;BME280;29803;51.048;4.686;2022-09-09T12:46:01;100694.22;;;19.90;100.00
44140;BME280;29803;51.048;4.686;2022-09-09T12:48:36;100686.41;;;19.94;100.00
44140;BME280;29803;51.048;4.686;2022-09-09T12:51:19;100693.25;;;19.85;100.00
44140;BME280;29803;51.048;4.686;2022-09-09T12:53:51;100682.38;;;19.66;100.00
44140;BME280;29803;51.048;4.686;2022-09-09T12:56:24;100686.22;;;19.77;100.00
44140;BME280;29803;51.048;4.686;2022-09-09T12:58:57;100682.50;;;19.90;100.00
44140;BME280;29803;51.048;4.686;2022-09-09T13:01:31;100678.03;;;20.07;100.00
44140;BME280;29803;51.048;4.686;2022-09-09T13:04:19;100686.50;;;19.87;100.00
44140;BME280;29803;51.048;4.686;2022-09-09T13:06:52;100677.47;;;20.17;100.00
44140;BME280;29803;51.048;4.686;2022-09-09T13:09:23;100680.56;;;20.21;100.00
44140;BME280;29803;51.048;4.686;2022-09-09T13:11:54;100670.22;;;20.11;100.00
44140;BME280;29803;51.048;4.686;2022-09-09T13:14:44;100675.81;;;20.28;100.00
44140;BME280;29803;51.048;4.686;2022-09-09T13:17:35;100672.81;;;20.59;100.00
44140;BME280;29803;51.048;4.686;2022-09-09T13:20:14;100669.84;;;20.61;100.00
44140;BME280;29803;51.048;4.686;2022-09-09T13:22:47;100676.47;;;20.77;100.00
44140;BME280;29803;51.048;4.686;2022-09-09T13:25:23;100677.22;;;20.84;100.00
44140;BME280;29803;51.048;4.686;2022-09-09T13:27:59;100671.03;;;20.88;100.00
44140;BME280;29803;51.048;4.686;2022-09-09T13:30:33;100678.88;;;20.85;100.00
44140;BME280;29803;51.048;4.686;2022-09-09T13:33:29;100678.16;;;20.89;100.00
44140;BME280;29803;51.048;4.686;2022-09-09T13:36:03;100671.63;;;20.79;100.00
44140;BME280;29803;51.048;4.686;2022-09-09T13:38:53;100675.09;;;20.74;100.00
44140;BME280;29803;51.048;4.686;2022-09-09T13:41:30;100670.44;;;20.86;100.00
44140;BME280;29803;51.048;4.686;2022-09-09T13:44:03;100675.78;;;20.81;100.00
44140;BME280;29803;51.048;4.686;2022-09-09T13:46:36;100675.19;;;20.91;100.00
44140;BME280;29803;51.048;4.686;2022-09-09T13:51:41;100672.19;;;20.46;100.00
44140;BME280;29803;51.048;4.686;2022-09-09T13:54:14;100679.53;;;20.33;100.00
44140;BME280;29803;51.048;4.686;2022-09-09T13:56:46;100681.72;;;20.13;100.00
44140;BME280;29803;51.048;4.686;2022-09-09T13:59:19;100690.34;;;19.98;100.00
44140;BME280;29803;51.048;4.686;2022-09-09T14:01:51;100680.19;;;19.75;100.00
44140;BME280;29803;51.048;4.686;2022-09-09T14:04:22;100681.38;;;19.79;100.00
44140;BME280;29803;51.048;4.686;2022-09-09T14:06:54;100690.94;;;19.70;100.00
44140;BME280;29803;51.048;4.686;2022-09-09T14:09:25;100681.69;;;19.71;100.00
44140;BME280;29803;51.048;4.686;2022-09-09T14:11:56;100687.97;;;19.72;100.00
44140;BME280;29803;51.048;4.686;2022-09-09T14:14:26;100689.19;;;19.76;100.00
44140;BME280;29803;51.048;4.686;2022-09-09T14:16:57;100694.75;;;20.11;100.00
44140;BME280;29803;51.048;4.686;2022-09-09T14:19:28;100693.72;;;20.35;100.00
44140;BME280;29803;51.048;4.686;2022-09-09T14:21:59;100684.38;;;20.43;100.00
44140;BME280;29803;51.048;4.686;2022-09-09T14:24:30;100682.97;;;20.40;100.00
44140;BME280;29803;51.048;4.686;2022-09-09T14:27:01;100689.00;;;20.42;100.00
44140;BME280;29803;51.048;4.686;2022-09-09T14:29:31;100677.19;;;20.07;100.00
44140;BME280;29803;51.048;4.686;2022-09-09T14:35:30;100686.63;;;19.92;100.00
44140;BME280;29803;51.048;4.686;2022-09-09T14:38:00;100682.72;;;19.88;100.00
44140;BME280;29803;51.048;4.686;2022-09-09T14:40:31;100681.72;;;20.13;100.00
44140;BME280;29803;51.048;4.686;2022-09-09T14:43:02;100682.91;;;20.59;100.00
44140;BME280;29803;51.048;4.686;2022-09-09T14:45:35;100682.06;;;20.82;100.00